sensor_id;sensor_type;location;lat;lon;timestamp;P1;durP1;ratioP1;P2;durP2;ratioP2
39772;SDS011;25451;51.960;6.250;2023-02-28T00:00:06;6.80;;;2.97;;
39772;SDS011;25451;51.960;6.250;2023-02-28T00:02:42;5.65;;;2.92;;
39772;SDS011;25451;51.960;6.250;2023-02-28T00:05:09;5.68;;;2.72;;
39772;SDS011;25451;51.960;6.250;2023-02-28T00:07:36;7.00;;;2.83;;
39772;SDS011;25451;51.960;6.250;2023-02-28T00:10:02;6.63;;;2.67;;
39772;SDS011;25451;51.960;6.250;2023-02-28T00:12:28;6.47;;;3.05;;
39772;SDS011;25451;51.960;6.250;2023-02-28T00:14:54;6.90;;;3.00;;
39772;SDS011;25451;51.960;6.250;2023-02-28T00:17:19;5.80;;;3.00;;
39772;SDS011;25451;51.960;6.250;2023-02-28T00:19:47;6.50;;;3.22;;
39772;SDS011;25451;51.960;6.250;2023-02-28T00:22:13;5.72;;;3.15;;
39772;SDS011;25451;51.960;6.250;2023-02-28T00:24:40;5.35;;;2.72;;
39772;SDS011;25451;51.960;6.250;2023-02-28T00:27:05;5.60;;;2.60;;
39772;SDS011;25451;51.960;6.250;2023-02-28T00:29:30;5.73;;;3.10;;
39772;SDS011;25451;51.960;6.250;2023-02-28T00:31:56;7.00;;;2.77;;
39772;SDS011;25451;51.960;6.250;2023-02-28T00:34:21;5.03;;;2.87;;
39772;SDS011;25451;51.960;6.250;2023-02-28T00:36:46;6.50;;;3.00;;
39772;SDS011;25451;51.960;6.250;2023-02-28T00:39:14;5.60;;;2.63;;
39772;SDS011;25451;51.960;6.250;2023-02-28T00:41:39;5.07;;;2.80;;
39772;SDS011;25451;51.960;6.250;2023-02-28T00:44:04;5.57;;;2.83;;
39772;SDS011;25451;51.960;6.250;2023-02-28T00:46:30;4.72;;;2.72;;
39772;SDS011;25451;51.960;6.250;2023-02-28T00:48:55;7.00;;;3.03;;
39772;SDS011;25451;51.960;6.250;2023-02-28T00:51:20;6.97;;;3.20;;
39772;SDS011;25451;51.960;6.250;2023-02-28T00:53:46;5.33;;;2.77;;
39772;SDS011;25451;51.960;6.250;2023-02-28T00:56:11;8.03;;;2.67;;
39772;SDS011;25451;51.960;6.250;2023-02-28T00:58:36;5.57;;;2.97;;
39772;SDS011;25451;51.960;6.250;2023-02-28T01:01:02;7.20;;;3.33;;
39772;SDS011;25451;51.960;6.250;2023-02-28T01:03:27;6.00;;;2.93;;
39772;SDS011;25451;51.960;6.250;2023-02-28T01:05:53;5.18;;;2.40;;
39772;SDS011;25451;51.960;6.250;2023-02-28T01:08:18;5.77;;;2.87;;
39772;SDS011;25451;51.960;6.250;2023-02-28T01:10:44;6.45;;;3.20;;
39772;SDS011;25451;51.960;6.250;2023-02-28T01:13:10;5.63;;;3.20;;
39772;SDS011;25451;51.960;6.250;2023-02-28T01:15:36;8.55;;;2.90;;
39772;SDS011;25451;51.960;6.250;2023-02-28T01:18:02;5.00;;;2.60;;
39772;SDS011;25451;51.960;6.250;2023-02-28T01:20:28;5.32;;;2.78;;
39772;SDS011;25451;51.960;6.250;2023-02-28T01:22:53;6.90;;;2.63;;
39772;SDS011;25451;51.960;6.250;2023-02-28T01:25:18;8.87;;;3.27;;
39772;SDS011;25451;51.960;6.250;2023-02-28T01:27:44;5.97;;;3.17;;
39772;SDS011;25451;51.960;6.250;2023-02-28T01:30:10;6.22;;;2.95;;
39772;SDS011;25451;51.960;6.250;2023-02-28T01:32:36;5.87;;;3.00;;
39772;SDS011;25451;51.960;6.250;2023-02-28T01:35:01;8.65;;;3.42;;
39772;SDS011;25451;51.960;6.250;2023-02-28T01:37:27;6.50;;;2.85;;
39772;SDS011;25451;51.960;6.250;2023-02-28T01:39:53;6.97;;;2.85;;
39772;SDS011;25451;51.960;6.250;2023-02-28T01:42:18;7.53;;;3.30;;
39772;SDS011;25451;51.960;6.250;2023-02-28T01:47:46;7.57;;;3.33;;
39772;SDS011;25451;51.960;6.250;2023-02-28T01:50:19;5.13;;;3.10;;
39772;SDS011;25451;51.960;6.250;2023-02-28T01:52:48;6.67;;;3.17;;
39772;SDS011;25451;51.960;6.250;2023-02-28T01:55:14;6.40;;;3.33;;
39772;SDS011;25451;51.960;6.250;2023-02-28T01:57:45;7.10;;;3.25;;
39772;SDS011;25451;51.960;6.250;2023-02-28T02:00:16;5.75;;;3.28;;
39772;SDS011;25451;51.960;6.250;2023-02-28T02:02:44;6.63;;;3.17;;
39772;SDS011;25451;51.960;6.250;2023-02-28T02:05:16;8.93;;;3.67;;
39772;SDS011;25451;51.960;6.250;2023-02-28T02:07:47;8.75;;;3.40;;
39772;SDS011;25451;51.960;6.250;2023-02-28T02:21:16;6.53;;;3.30;;
39772;SDS011;25451;51.960;6.250;2023-02-28T02:34:51;5.97;;;3.23;;
39772;SDS011;25451;51.960;6.250;2023-02-28T02:37:27;7.22;;;3.42;;
39772;SDS011;25451;51.960;6.250;2023-02-28T02:40:03;6.10;;;2.97;;
39772;SDS011;25451;51.960;6.250;2023-02-28T02:42:55;5.85;;;3.13;;
39772;SDS011;25451;51.960;6.250;2023-02-28T02:45:52;5.30;;;2.80;;
39772;SDS011;25451;51.960;6.250;2023-02-28T02:48:24;5.40;;;3.03;;
39772;SDS011;25451;51.960;6.250;2023-02-28T02:50:54;6.93;;;2.97;;
39772;SDS011;25451;51.960;6.250;2023-02-28T02:53:30;6.70;;;3.00;;
39772;SDS011;25451;51.960;6.250;2023-02-28T02:56:02;6.15;;;3.00;;
39772;SDS011;25451;51.960;6.250;2023-02-28T02:58:31;5.63;;;2.70;;
39772;SDS011;25451;51.960;6.250;2023-02-28T03:01:06;5.63;;;2.93;;
39772;SDS011;25451;51.960;6.250;2023-02-28T03:03:35;6.13;;;2.85;;
39772;SDS011;25451;51.960;6.250;2023-02-28T03:06:01;5.50;;;2.97;;
39772;SDS011;25451;51.960;6.250;2023-02-28T03:08:28;8.93;;;3.47;;
39772;SDS011;25451;51.960;6.250;2023-02-28T03:11:03;9.35;;;3.13;;
39772;SDS011;25451;51.960;6.250;2023-02-28T03:27:17;7.78;;;3.38;;
39772;SDS011;25451;51.960;6.250;2023-02-28T03:30:33;6.97;;;2.90;;
39772;SDS011;25451;51.960;6.250;2023-02-28T03:33:03;5.40;;;2.65;;
39772;SDS011;25451;51.960;6.250;2023-02-28T03:35:50;5.93;;;3.17;;
39772;SDS011;25451;51.960;6.250;2023-02-28T03:41:17;7.18;;;3.10;;
39772;SDS011;25451;51.960;6.250;2023-02-28T03:43:53;5.30;;;2.73;;
39772;SDS011;25451;51.960;6.250;2023-02-28T03:46:23;5.75;;;2.85;;
39772;SDS011;25451;51.960;6.250;2023-02-28T03:49:14;8.60;;;3.40;;
39772;SDS011;25451;51.960;6.250;2023-02-28T03:51:43;6.68;;;3.03;;
39772;SDS011;25451;51.960;6.250;2023-02-28T03:54:18;6.50;;;3.42;;
39772;SDS011;25451;51.960;6.250;2023-02-28T03:56:48;7.27;;;3.33;;
39772;SDS011;25451;51.960;6.250;2023-02-28T03:59:21;6.80;;;3.05;;
39772;SDS011;25451;51.960;6.250;2023-02-28T04:01:53;9.00;;;3.35;;
39772;SDS011;25451;51.960;6.250;2023-02-28T04:04:20;8.57;;;3.17;;
39772;SDS011;25451;51.960;6.250;2023-02-28T04:06:47;5.85;;;2.90;;
39772;SDS011;25451;51.960;6.250;2023-02-28T04:09:15;6.23;;;3.10;;
39772;SDS011;25451;51.960;6.250;2023-02-28T04:11:42;8.13;;;3.22;;
39772;SDS011;25451;51.960;6.250;2023-02-28T04:14:09;6.15;;;3.17;;
39772;SDS011;25451;51.960;6.250;2023-02-28T04:16:36;5.17;;;2.70;;
39772;SDS011;25451;51.960;6.250;2023-02-28T04:19:03;6.20;;;3.13;;
39772;SDS011;25451;51.960;6.250;2023-02-28T04:21:31;7.72;;;3.58;;
39772;SDS011;25451;51.960;6.250;2023-02-28T04:23:58;9.52;;;4.03;;
39772;SDS011;25451;51.960;6.250;2023-02-28T04:26:32;4.65;;;2.83;;
39772;SDS011;25451;51.960;6.250;2023-02-28T04:28:59;6.20;;;3.17;;
39772;SDS011;25451;51.960;6.250;2023-02-28T04:31:25;7.25;;;3.78;;
39772;SDS011;25451;51.960;6.250;2023-02-28T04:33:50;6.47;;;3.60;;
39772;SDS011;25451;51.960;6.250;2023-02-28T04:36:16;8.55;;;3.80;;
39772;SDS011;25451;51.960;6.250;2023-02-28T04:38:42;7.70;;;3.85;;
39772;SDS011;25451;51.960;6.250;2023-02-28T04:41:08;7.87;;;3.90;;
39772;SDS011;25451;51.960;6.250;2023-02-28T04:43:34;6.88;;;3.60;;
39772;SDS011;25451;51.960;6.250;2023-02-28T04:46:01;7.73;;;3.50;;
39772;SDS011;25451;51.960;6.250;2023-02-28T04:48:28;6.85;;;3.33;;
39772;SDS011;25451;51.960;6.250;2023-02-28T04:50:59;7.15;;;3.47;;
39772;SDS011;25451;51.960;6.250;2023-02-28T04:53:29;6.65;;;3.47;;
39772;SDS011;25451;51.960;6.250;2023-02-28T04:55:55;7.00;;;3.20;;
39772;SDS011;25451;51.960;6.250;2023-02-28T04:58:21;8.73;;;3.50;;
39772;SDS011;25451;51.960;6.250;2023-02-28T05:00:49;7.18;;;3.28;;
39772;SDS011;25451;51.960;6.250;2023-02-28T05:03:15;6.43;;;3.20;;
39772;SDS011;25451;51.960;6.250;2023-02-28T05:05:41;7.40;;;3.17;;
39772;SDS011;25451;51.960;6.250;2023-02-28T05:08:06;5.63;;;2.83;;
39772;SDS011;25451;51.960;6.250;2023-02-28T05:10:32;6.43;;;2.67;;
39772;SDS011;25451;51.960;6.250;2023-02-28T05:12:57;6.13;;;2.90;;
39772;SDS011;25451;51.960;6.250;2023-02-28T05:15:23;6.03;;;3.22;;
39772;SDS011;25451;51.960;6.250;2023-02-28T05:17:49;5.87;;;3.00;;
39772;SDS011;25451;51.960;6.250;2023-02-28T05:20:14;5.20;;;2.83;;
39772;SDS011;25451;51.960;6.250;2023-02-28T05:22:40;6.30;;;2.93;;
39772;SDS011;25451;51.960;6.250;2023-02-28T05:25:06;7.55;;;2.50;;
39772;SDS011;25451;51.960;6.250;2023-02-28T05:27:32;6.13;;;2.90;;
39772;SDS011;25451;51.960;6.250;2023-02-28T05:29:57;8.43;;;3.08;;
39772;SDS011;25451;51.960;6.250;2023-02-28T05:32:23;5.18;;;2.63;;
39772;SDS011;25451;51.960;6.250;2023-02-28T05:34:49;7.30;;;3.00;;
39772;SDS011;25451;51.960;6.250;2023-02-28T05:37:15;7.00;;;2.97;;
39772;SDS011;25451;51.960;6.250;2023-02-28T05:39:41;5.43;;;2.90;;
39772;SDS011;25451;51.960;6.250;2023-02-28T05:42:06;6.63;;;2.70;;
39772;SDS011;25451;51.960;6.250;2023-02-28T05:44:32;7.03;;;3.20;;
39772;SDS011;25451;51.960;6.250;2023-02-28T05:46:57;5.83;;;2.73;;
39772;SDS011;25451;51.960;6.250;2023-02-28T05:49:23;6.67;;;3.20;;
39772;SDS011;25451;51.960;6.250;2023-02-28T05:51:48;8.87;;;2.93;;
39772;SDS011;25451;51.960;6.250;2023-02-28T05:54:13;6.17;;;2.40;;
39772;SDS011;25451;51.960;6.250;2023-02-28T05:56:39;6.30;;;2.83;;
39772;SDS011;25451;51.960;6.250;2023-02-28T05:59:06;5.80;;;2.90;;
39772;SDS011;25451;51.960;6.250;2023-02-28T06:03:57;5.20;;;2.80;;
39772;SDS011;25451;51.960;6.250;2023-02-28T06:06:23;8.05;;;2.92;;
39772;SDS011;25451;51.960;6.250;2023-02-28T06:08:49;5.77;;;2.60;;
39772;SDS011;25451;51.960;6.250;2023-02-28T06:11:14;7.60;;;2.50;;
39772;SDS011;25451;51.960;6.250;2023-02-28T06:13:39;6.53;;;2.30;;
39772;SDS011;25451;51.960;6.250;2023-02-28T06:16:05;5.53;;;2.80;;
39772;SDS011;25451;51.960;6.250;2023-02-28T06:18:32;5.18;;;3.03;;
39772;SDS011;25451;51.960;6.250;2023-02-28T06:20:57;6.60;;;2.83;;
39772;SDS011;25451;51.960;6.250;2023-02-28T06:23:23;5.45;;;2.58;;
39772;SDS011;25451;51.960;6.250;2023-02-28T06:25:48;9.00;;;3.13;;
39772;SDS011;25451;51.960;6.250;2023-02-28T06:28:14;6.15;;;3.05;;
39772;SDS011;25451;51.960;6.250;2023-02-28T06:30:40;6.72;;;3.13;;
39772;SDS011;25451;51.960;6.250;2023-02-28T06:33:05;5.43;;;2.70;;
39772;SDS011;25451;51.960;6.250;2023-02-28T06:35:31;5.27;;;2.60;;
39772;SDS011;25451;51.960;6.250;2023-02-28T06:37:56;6.10;;;2.60;;
39772;SDS011;25451;51.960;6.250;2023-02-28T06:40:22;7.47;;;3.03;;
39772;SDS011;25451;51.960;6.250;2023-02-28T06:42:48;5.63;;;2.88;;
39772;SDS011;25451;51.960;6.250;2023-02-28T06:45:13;7.57;;;3.07;;
39772;SDS011;25451;51.960;6.250;2023-02-28T06:47:39;7.95;;;2.80;;
39772;SDS011;25451;51.960;6.250;2023-02-28T06:50:07;5.75;;;2.78;;
39772;SDS011;25451;51.960;6.250;2023-02-28T06:52:35;6.32;;;2.90;;
39772;SDS011;25451;51.960;6.250;2023-02-28T06:55:03;6.13;;;3.00;;
39772;SDS011;25451;51.960;6.250;2023-02-28T06:57:33;5.25;;;2.75;;
39772;SDS011;25451;51.960;6.250;2023-02-28T07:00:04;4.93;;;2.47;;
39772;SDS011;25451;51.960;6.250;2023-02-28T07:02:32;5.15;;;2.92;;
39772;SDS011;25451;51.960;6.250;2023-02-28T07:04:58;5.30;;;2.45;;
39772;SDS011;25451;51.960;6.250;2023-02-28T07:07:23;6.20;;;2.27;;
39772;SDS011;25451;51.960;6.250;2023-02-28T07:09:48;4.80;;;2.53;;
39772;SDS011;25451;51.960;6.250;2023-02-28T07:12:14;5.53;;;2.50;;
39772;SDS011;25451;51.960;6.250;2023-02-28T07:14:39;3.40;;;2.20;;
39772;SDS011;25451;51.960;6.250;2023-02-28T07:17:06;5.43;;;2.50;;
39772;SDS011;25451;51.960;6.250;2023-02-28T07:19:32;4.50;;;2.30;;
39772;SDS011;25451;51.960;6.250;2023-02-28T07:21:57;6.47;;;2.63;;
39772;SDS011;25451;51.960;6.250;2023-02-28T07:24:23;3.90;;;2.37;;
39772;SDS011;25451;51.960;6.250;2023-02-28T07:26:50;4.78;;;2.28;;
39772;SDS011;25451;51.960;6.250;2023-02-28T07:29:16;5.73;;;2.50;;
39772;SDS011;25451;51.960;6.250;2023-02-28T07:31:41;4.13;;;2.20;;
39772;SDS011;25451;51.960;6.250;2023-02-28T07:34:06;5.23;;;2.00;;
39772;SDS011;25451;51.960;6.250;2023-02-28T07:36:32;7.40;;;2.43;;
39772;SDS011;25451;51.960;6.250;2023-02-28T07:38:57;5.47;;;2.30;;
39772;SDS011;25451;51.960;6.250;2023-02-28T07:41:23;3.50;;;1.92;;
39772;SDS011;25451;51.960;6.250;2023-02-28T07:43:53;6.65;;;2.22;;
39772;SDS011;25451;51.960;6.250;2023-02-28T07:46:20;3.83;;;2.07;;
39772;SDS011;25451;51.960;6.250;2023-02-28T07:48:46;4.82;;;2.22;;
39772;SDS011;25451;51.960;6.250;2023-02-28T07:51:11;4.53;;;2.30;;
39772;SDS011;25451;51.960;6.250;2023-02-28T07:53:37;4.60;;;2.15;;
39772;SDS011;25451;51.960;6.250;2023-02-28T07:56:02;3.70;;;1.87;;
39772;SDS011;25451;51.960;6.250;2023-02-28T07:58:28;4.17;;;2.13;;
39772;SDS011;25451;51.960;6.250;2023-02-28T08:00:54;4.55;;;1.90;;
39772;SDS011;25451;51.960;6.250;2023-02-28T08:03:20;3.93;;;1.93;;
39772;SDS011;25451;51.960;6.250;2023-02-28T08:05:47;3.63;;;1.77;;
39772;SDS011;25451;51.960;6.250;2023-02-28T08:08:13;3.45;;;1.98;;
39772;SDS011;25451;51.960;6.250;2023-02-28T08:10:38;5.45;;;2.30;;
39772;SDS011;25451;51.960;6.250;2023-02-28T08:13:04;4.03;;;2.13;;
39772;SDS011;25451;51.960;6.250;2023-02-28T08:15:29;6.93;;;2.23;;
39772;SDS011;25451;51.960;6.250;2023-02-28T08:17:54;4.30;;;2.10;;
39772;SDS011;25451;51.960;6.250;2023-02-28T08:20:21;5.97;;;1.95;;
39772;SDS011;25451;51.960;6.250;2023-02-28T08:22:47;5.70;;;2.00;;
39772;SDS011;25451;51.960;6.250;2023-02-28T08:25:12;4.00;;;1.70;;
39772;SDS011;25451;51.960;6.250;2023-02-28T08:27:38;3.75;;;2.00;;
39772;SDS011;25451;51.960;6.250;2023-02-28T08:30:03;4.07;;;2.03;;
39772;SDS011;25451;51.960;6.250;2023-02-28T08:32:32;4.78;;;2.20;;
39772;SDS011;25451;51.960;6.250;2023-02-28T08:34:58;3.70;;;1.90;;
39772;SDS011;25451;51.960;6.250;2023-02-28T08:37:24;3.53;;;1.60;;
39772;SDS011;25451;51.960;6.250;2023-02-28T08:39:50;3.47;;;1.70;;
39772;SDS011;25451;51.960;6.250;2023-02-28T08:42:15;4.03;;;1.85;;
39772;SDS011;25451;51.960;6.250;2023-02-28T08:44:40;4.83;;;1.90;;
39772;SDS011;25451;51.960;6.250;2023-02-28T08:47:06;4.53;;;1.80;;
39772;SDS011;25451;51.960;6.250;2023-02-28T08:49:31;4.30;;;1.90;;
39772;SDS011;25451;51.960;6.250;2023-02-28T08:51:57;4.03;;;2.30;;
39772;SDS011;25451;51.960;6.250;2023-02-28T08:54:23;3.80;;;2.10;;
39772;SDS011;25451;51.960;6.250;2023-02-28T08:56:48;3.15;;;1.80;;
39772;SDS011;25451;51.960;6.250;2023-02-28T08:59:14;4.73;;;2.00;;
39772;SDS011;25451;51.960;6.250;2023-02-28T09:01:40;3.67;;;1.90;;
39772;SDS011;25451;51.960;6.250;2023-02-28T09:04:06;4.55;;;2.15;;
39772;SDS011;25451;51.960;6.250;2023-02-28T09:06:33;4.97;;;1.80;;
39772;SDS011;25451;51.960;6.250;2023-02-28T09:08:59;4.07;;;1.60;;
39772;SDS011;25451;51.960;6.250;2023-02-28T09:11:26;2.72;;;1.50;;
39772;SDS011;25451;51.960;6.250;2023-02-28T09:13:52;3.30;;;1.33;;
39772;SDS011;25451;51.960;6.250;2023-02-28T09:16:18;3.20;;;1.50;;
39772;SDS011;25451;51.960;6.250;2023-02-28T09:18:43;2.60;;;1.20;;
39772;SDS011;25451;51.960;6.250;2023-02-28T09:21:12;3.15;;;1.27;;
39772;SDS011;25451;51.960;6.250;2023-02-28T09:23:43;2.22;;;1.20;;
39772;SDS011;25451;51.960;6.250;2023-02-28T09:26:14;3.08;;;1.60;;
39772;SDS011;25451;51.960;6.250;2023-02-28T09:28:41;2.60;;;1.33;;
39772;SDS011;25451;51.960;6.250;2023-02-28T09:31:06;4.25;;;1.55;;
39772;SDS011;25451;51.960;6.250;2023-02-28T09:33:35;2.78;;;1.33;;
39772;SDS011;25451;51.960;6.250;2023-02-28T09:36:02;2.23;;;1.10;;
39772;SDS011;25451;51.960;6.250;2023-02-28T09:38:28;2.73;;;1.30;;
39772;SDS011;25451;51.960;6.250;2023-02-28T09:41:01;2.53;;;1.10;;
39772;SDS011;25451;51.960;6.250;2023-02-28T09:43:30;2.33;;;1.25;;
39772;SDS011;25451;51.960;6.250;2023-02-28T09:46:06;3.00;;;1.13;;
39772;SDS011;25451;51.960;6.250;2023-02-28T09:48:40;2.70;;;1.27;;
39772;SDS011;25451;51.960;6.250;2023-02-28T09:51:14;2.53;;;1.40;;
39772;SDS011;25451;51.960;6.250;2023-02-28T09:53:51;2.80;;;1.20;;
39772;SDS011;25451;51.960;6.250;2023-02-28T09:56:20;2.72;;;1.30;;
39772;SDS011;25451;51.960;6.250;2023-02-28T09:58:59;2.60;;;1.40;;
39772;SDS011;25451;51.960;6.250;2023-02-28T10:01:37;3.60;;;1.60;;
39772;SDS011;25451;51.960;6.250;2023-02-28T10:06:50;3.08;;;1.40;;
39772;SDS011;25451;51.960;6.250;2023-02-28T10:09:18;2.20;;;1.30;;
39772;SDS011;25451;51.960;6.250;2023-02-28T10:11:48;2.72;;;1.60;;
39772;SDS011;25451;51.960;6.250;2023-02-28T10:14:21;2.60;;;1.35;;
39772;SDS011;25451;51.960;6.250;2023-02-28T10:16:53;2.10;;;1.40;;
39772;SDS011;25451;51.960;6.250;2023-02-28T10:22:33;4.72;;;1.60;;
39772;SDS011;25451;51.960;6.250;2023-02-28T10:24:52;2.03;;;1.20;;
39772;SDS011;25451;51.960;6.250;2023-02-28T10:27:22;3.03;;;1.35;;
39772;SDS011;25451;51.960;6.250;2023-02-28T10:29:53;2.65;;;1.35;;
39772;SDS011;25451;51.960;6.250;2023-02-28T10:32:22;2.78;;;1.40;;
39772;SDS011;25451;51.960;6.250;2023-02-28T10:37:33;2.47;;;1.35;;
39772;SDS011;25451;51.960;6.250;2023-02-28T10:40:04;3.27;;;1.10;;
39772;SDS011;25451;51.960;6.250;2023-02-28T10:42:31;3.35;;;1.65;;
39772;SDS011;25451;51.960;6.250;2023-02-28T10:45:13;2.95;;;1.30;;
39772;SDS011;25451;51.960;6.250;2023-02-28T10:48:04;2.75;;;1.52;;
39772;SDS011;25451;51.960;6.250;2023-02-28T10:53:22;2.50;;;1.47;;
39772;SDS011;25451;51.960;6.250;2023-02-28T10:55:56;1.90;;;1.20;;
39772;SDS011;25451;51.960;6.250;2023-02-28T10:58:23;2.40;;;1.20;;
39772;SDS011;25451;51.960;6.250;2023-02-28T11:00:50;4.47;;;1.50;;
39772;SDS011;25451;51.960;6.250;2023-02-28T11:03:33;3.22;;;1.50;;
39772;SDS011;25451;51.960;6.250;2023-02-28T11:06:04;2.17;;;1.30;;
39772;SDS011;25451;51.960;6.250;2023-02-28T11:08:33;4.60;;;1.40;;
39772;SDS011;25451;51.960;6.250;2023-02-28T11:11:00;2.10;;;1.30;;
39772;SDS011;25451;51.960;6.250;2023-02-28T11:13:32;2.47;;;1.40;;
39772;SDS011;25451;51.960;6.250;2023-02-28T11:16:00;2.65;;;1.50;;
39772;SDS011;25451;51.960;6.250;2023-02-28T11:21:05;3.03;;;1.50;;
39772;SDS011;25451;51.960;6.250;2023-02-28T11:23:32;2.80;;;1.50;;
39772;SDS011;25451;51.960;6.250;2023-02-28T11:26:01;3.60;;;1.60;;
39772;SDS011;25451;51.960;6.250;2023-02-28T11:28:37;2.77;;;1.53;;
39772;SDS011;25451;51.960;6.250;2023-02-28T11:33:54;3.30;;;1.50;;
39772;SDS011;25451;51.960;6.250;2023-02-28T11:36:24;2.55;;;1.50;;
39772;SDS011;25451;51.960;6.250;2023-02-28T11:38:56;4.88;;;1.60;;
39772;SDS011;25451;51.960;6.250;2023-02-28T11:41:32;2.37;;;1.40;;
39772;SDS011;25451;51.960;6.250;2023-02-28T11:49:49;3.20;;;1.60;;
39772;SDS011;25451;51.960;6.250;2023-02-28T11:52:20;3.63;;;1.60;;
39772;SDS011;25451;51.960;6.250;2023-02-28T12:11:14;3.60;;;1.70;;
39772;SDS011;25451;51.960;6.250;2023-02-28T12:13:58;3.20;;;1.70;;
39772;SDS011;25451;51.960;6.250;2023-02-28T12:19:17;2.90;;;1.60;;
39772;SDS011;25451;51.960;6.250;2023-02-28T12:27:20;1.85;;;1.15;;
39772;SDS011;25451;51.960;6.250;2023-02-28T12:29:56;2.38;;;1.27;;
39772;SDS011;25451;51.960;6.250;2023-02-28T12:32:44;1.98;;;1.27;;
39772;SDS011;25451;51.960;6.250;2023-02-28T12:35:14;2.00;;;1.30;;
39772;SDS011;25451;51.960;6.250;2023-02-28T12:37:48;3.80;;;1.30;;
39772;SDS011;25451;51.960;6.250;2023-02-28T12:40:19;2.90;;;1.30;;
39772;SDS011;25451;51.960;6.250;2023-02-28T12:42:55;2.92;;;1.35;;
39772;SDS011;25451;51.960;6.250;2023-02-28T12:45:26;2.28;;;1.20;;
39772;SDS011;25451;51.960;6.250;2023-02-28T12:48:01;1.80;;;1.10;;
39772;SDS011;25451;51.960;6.250;2023-02-28T12:50:30;2.93;;;1.40;;
39772;SDS011;25451;51.960;6.250;2023-02-28T12:53:00;2.55;;;1.20;;
39772;SDS011;25451;51.960;6.250;2023-02-28T12:55:35;1.85;;;1.17;;
39772;SDS011;25451;51.960;6.250;2023-02-28T12:58:27;3.40;;;1.13;;
39772;SDS011;25451;51.960;6.250;2023-02-28T13:09:27;2.10;;;1.08;;
39772;SDS011;25451;51.960;6.250;2023-02-28T13:11:54;3.35;;;1.65;;
39772;SDS011;25451;51.960;6.250;2023-02-28T13:14:23;2.47;;;1.10;;
39772;SDS011;25451;51.960;6.250;2023-02-28T13:16:57;3.27;;;1.40;;
39772;SDS011;25451;51.960;6.250;2023-02-28T13:24:48;2.22;;;1.30;;
39772;SDS011;25451;51.960;6.250;2023-02-28T13:27:20;2.10;;;1.33;;
39772;SDS011;25451;51.960;6.250;2023-02-28T13:29:57;3.00;;;1.40;;
39772;SDS011;25451;51.960;6.250;2023-02-28T13:39:52;2.30;;;1.20;;
39772;SDS011;25451;51.960;6.250;2023-02-28T13:47:30;2.60;;;1.40;;
39772;SDS011;25451;51.960;6.250;2023-02-28T13:50:14;2.13;;;1.20;;
39772;SDS011;25451;51.960;6.250;2023-02-28T13:52:43;2.97;;;1.30;;
39772;SDS011;25451;51.960;6.250;2023-02-28T14:01:04;2.90;;;1.30;;
39772;SDS011;25451;51.960;6.250;2023-02-28T14:03:58;3.47;;;1.30;;
39772;SDS011;25451;51.960;6.250;2023-02-28T14:06:51;2.58;;;1.25;;
39772;SDS011;25451;51.960;6.250;2023-02-28T14:09:23;2.40;;;1.50;;
39772;SDS011;25451;51.960;6.250;2023-02-28T14:11:52;2.53;;;1.20;;
39772;SDS011;25451;51.960;6.250;2023-02-28T14:17:14;3.63;;;1.20;;
39772;SDS011;25451;51.960;6.250;2023-02-28T14:19:44;3.30;;;1.38;;
39772;SDS011;25451;51.960;6.250;2023-02-28T14:22:21;2.65;;;1.40;;
39772;SDS011;25451;51.960;6.250;2023-02-28T14:36:42;2.60;;;1.38;;
39772;SDS011;25451;51.960;6.250;2023-02-28T14:39:17;3.67;;;1.60;;
39772;SDS011;25451;51.960;6.250;2023-02-28T14:41:46;2.50;;;1.40;;
39772;SDS011;25451;51.960;6.250;2023-02-28T14:44:14;2.30;;;1.20;;
39772;SDS011;25451;51.960;6.250;2023-02-28T14:46:42;3.13;;;1.30;;
39772;SDS011;25451;51.960;6.250;2023-02-28T14:49:16;3.05;;;1.50;;
39772;SDS011;25451;51.960;6.250;2023-02-28T14:51:48;5.63;;;1.60;;
39772;SDS011;25451;51.960;6.250;2023-02-28T14:54:16;2.38;;;1.35;;
39772;SDS011;25451;51.960;6.250;2023-02-28T14:56:47;5.90;;;1.80;;
39772;SDS011;25451;51.960;6.250;2023-02-28T14:59:30;2.70;;;1.50;;
39772;SDS011;25451;51.960;6.250;2023-02-28T15:02:16;3.90;;;1.52;;
39772;SDS011;25451;51.960;6.250;2023-02-28T15:04:43;3.47;;;1.50;;
39772;SDS011;25451;51.960;6.250;2023-02-28T15:07:14;3.08;;;1.60;;
39772;SDS011;25451;51.960;6.250;2023-02-28T15:09:41;4.37;;;1.90;;
39772;SDS011;25451;51.960;6.250;2023-02-28T15:12:07;3.90;;;1.67;;
39772;SDS011;25451;51.960;6.250;2023-02-28T15:14:36;2.53;;;1.55;;
39772;SDS011;25451;51.960;6.250;2023-02-28T15:17:06;6.30;;;1.83;;
39772;SDS011;25451;51.960;6.250;2023-02-28T15:19:39;3.05;;;1.50;;
39772;SDS011;25451;51.960;6.250;2023-02-28T15:22:12;2.87;;;1.43;;
39772;SDS011;25451;51.960;6.250;2023-02-28T15:27:15;5.78;;;1.90;;
39772;SDS011;25451;51.960;6.250;2023-02-28T15:29:50;3.37;;;1.80;;
39772;SDS011;25451;51.960;6.250;2023-02-28T15:32:25;2.67;;;1.65;;
39772;SDS011;25451;51.960;6.250;2023-02-28T15:34:51;2.97;;;1.70;;
39772;SDS011;25451;51.960;6.250;2023-02-28T15:42:42;3.03;;;1.70;;
39772;SDS011;25451;51.960;6.250;2023-02-28T15:45:31;3.38;;;1.83;;
39772;SDS011;25451;51.960;6.250;2023-02-28T15:48:13;4.63;;;1.67;;
39772;SDS011;25451;51.960;6.250;2023-02-28T15:50:47;5.50;;;1.90;;
39772;SDS011;25451;51.960;6.250;2023-02-28T15:53:17;3.85;;;1.75;;
39772;SDS011;25451;51.960;6.250;2023-02-28T15:55:51;4.63;;;1.83;;
39772;SDS011;25451;51.960;6.250;2023-02-28T15:58:18;3.35;;;1.65;;
39772;SDS011;25451;51.960;6.250;2023-02-28T16:00:59;7.47;;;2.00;;
39772;SDS011;25451;51.960;6.250;2023-02-28T16:03:41;3.75;;;1.70;;
39772;SDS011;25451;51.960;6.250;2023-02-28T16:08:41;3.35;;;1.67;;
39772;SDS011;25451;51.960;6.250;2023-02-28T16:11:08;3.50;;;1.90;;
39772;SDS011;25451;51.960;6.250;2023-02-28T16:13:35;2.85;;;1.60;;
39772;SDS011;25451;51.960;6.250;2023-02-28T16:16:00;4.97;;;1.93;;
39772;SDS011;25451;51.960;6.250;2023-02-28T16:18:26;3.70;;;1.70;;
39772;SDS011;25451;51.960;6.250;2023-02-28T16:20:52;5.10;;;2.00;;
39772;SDS011;25451;51.960;6.250;2023-02-28T16:23:17;4.27;;;1.97;;
39772;SDS011;25451;51.960;6.250;2023-02-28T16:25:43;5.60;;;1.90;;
39772;SDS011;25451;51.960;6.250;2023-02-28T16:28:21;4.10;;;1.95;;
39772;SDS011;25451;51.960;6.250;2023-02-28T16:30:56;3.75;;;2.05;;
39772;SDS011;25451;51.960;6.250;2023-02-28T16:33:21;3.70;;;2.00;;
39772;SDS011;25451;51.960;6.250;2023-02-28T16:35:47;5.10;;;2.10;;
39772;SDS011;25451;51.960;6.250;2023-02-28T16:38:12;4.27;;;1.80;;
39772;SDS011;25451;51.960;6.250;2023-02-28T16:40:37;3.37;;;1.70;;
39772;SDS011;25451;51.960;6.250;2023-02-28T16:43:11;3.50;;;1.80;;
39772;SDS011;25451;51.960;6.250;2023-02-28T16:45:42;4.10;;;1.85;;
39772;SDS011;25451;51.960;6.250;2023-02-28T16:48:08;3.80;;;1.80;;
39772;SDS011;25451;51.960;6.250;2023-02-28T16:50:38;3.70;;;1.90;;
39772;SDS011;25451;51.960;6.250;2023-02-28T16:53:03;3.10;;;2.00;;
39772;SDS011;25451;51.960;6.250;2023-02-28T16:55:29;4.23;;;2.07;;
39772;SDS011;25451;51.960;6.250;2023-02-28T16:57:55;3.97;;;1.83;;
39772;SDS011;25451;51.960;6.250;2023-02-28T17:00:26;3.83;;;1.98;;
39772;SDS011;25451;51.960;6.250;2023-02-28T17:02:53;3.53;;;2.00;;
39772;SDS011;25451;51.960;6.250;2023-02-28T17:05:18;3.42;;;1.90;;
39772;SDS011;25451;51.960;6.250;2023-02-28T17:07:45;4.20;;;2.00;;
39772;SDS011;25451;51.960;6.250;2023-02-28T17:10:13;3.75;;;2.30;;
39772;SDS011;25451;51.960;6.250;2023-02-28T17:12:43;3.42;;;1.90;;
39772;SDS011;25451;51.960;6.250;2023-02-28T17:15:09;3.47;;;1.90;;
39772;SDS011;25451;51.960;6.250;2023-02-28T17:17:36;3.50;;;1.70;;
39772;SDS011;25451;51.960;6.250;2023-02-28T17:20:02;3.63;;;1.85;;
39772;SDS011;25451;51.960;6.250;2023-02-28T17:22:28;3.67;;;2.10;;
39772;SDS011;25451;51.960;6.250;2023-02-28T17:24:54;3.90;;;1.63;;
39772;SDS011;25451;51.960;6.250;2023-02-28T17:27:23;4.60;;;2.17;;